Pisco, Peru
Current Conditions -  °F | °C
As of 12:00 PM on Wednesday 26 Nov 2014 (Local Time) from SPSO Reporting Station
Overcast Overcast  
Wind Chill: 70°   Ceiling: 3200
Heat Index: 70°   Visibility: 6mi
Dew Point: 61°   Wind: 8mph
Humidity: 73%   Direction: 320°NW
Pressure: 29.94"   Gusts: NA
Location:  13.71°S, 76.22°W
Report Text: SPSO 261700Z 32007KT 9999 FEW020 OVC032 21/16 Q1014 RMK BIRDHAZARD RWY 22/04 PP000
Loading
Personal Weather Stations






























Interactive Weather Map New forecast layout! Learn more

10-Day Weather Forecast

Advertisements
Track Severe Weather on mobile